Time;durP1;ratioP1;P1;durP2;ratioP2;P2;SDS_P1;SDS_P2;PMS_P1;PMS_P2;Temp;Humidity;BMP_temperature;BMP_pressure;BME280_temperature;BME280_humidity;BME280_pressure;Samples;Min_cycle;Max_cycle;Signal;HPM_P1;HPM_P2
2022/04/08 00:02:22;;;;;;;8.88;3.45;;;;;;;;;;5013321;28;20204;-82
2022/04/08 00:04:50;;;;;;;6.32;3.10;;;;;;;;;;5010493;28;20668;-81
2022/04/08 00:07:18;;;;;;;10.55;4.38;;;;;;;;;;5010414;28;20662;-82
2022/04/08 00:09:46;;;;;;;8.18;3.30;;;;;;;;;;5010833;28;20594;-83
2022/04/08 00:12:13;;;;;;;8.45;3.85;;;;;;;;;;5010766;28;20195;-86
2022/04/08 00:14:40;;;;;;;6.80;3.17;;;;;;;;;;5011791;28;20286;-85
2022/04/08 00:17:09;;;;;;;8.75;4.10;;;;;;;;;;5012702;28;20294;-83
2022/04/08 00:19:37;;;;;;;6.65;3.55;;;;;;;;;;5015095;28;20224;-83
2022/04/08 00:22:05;;;;;;;8.95;4.25;;;;;;;;;;5017993;28;21135;-83
2022/04/08 00:24:32;;;;;;;7.70;3.88;;;;;;;;;;5013258;28;20231;-85
2022/04/08 00:26:59;;;;;;;10.07;5.80;;;;;;;;;;5010247;28;20211;-85
2022/04/08 00:29:29;;;;;;;11.52;4.55;;;;;;;;;;4993109;28;20216;-83
2022/04/08 00:31:57;;;;;;;12.93;4.50;;;;;;;;;;5010641;28;20210;-82
2022/04/08 00:34:26;;;;;;;12.73;4.35;;;;;;;;;;5010801;28;20223;-82
2022/04/08 00:36:54;;;;;;;11.82;4.65;;;;;;;;;;5011760;28;20204;-82
2022/04/08 00:39:22;;;;;;;10.45;4.82;;;;;;;;;;5012309;28;20761;-82
2022/04/08 00:41:49;;;;;;;8.57;5.40;;;;;;;;;;5015155;28;20196;-84
2022/04/08 00:44:16;;;;;;;10.55;5.55;;;;;;;;;;5017807;28;20211;-83
2022/04/08 00:46:44;;;;;;;13.60;5.95;;;;;;;;;;5024202;28;20202;-81
2022/04/08 00:49:11;;;;;;;11.27;5.30;;;;;;;;;;5029854;28;20242;-83
2022/04/08 00:51:40;;;;;;;18.45;7.45;;;;;;;;;;5030420;28;20195;-83
2022/04/08 00:54:08;;;;;;;10.30;6.57;;;;;;;;;;5030400;28;20230;-82
2022/04/08 00:56:35;;;;;;;10.40;6.78;;;;;;;;;;5030706;28;20317;-83
2022/04/08 00:59:02;;;;;;;10.63;7.00;;;;;;;;;;5014299;28;20224;-81
2022/04/08 01:01:29;;;;;;;13.73;6.60;;;;;;;;;;5012086;28;20207;-81
2022/04/08 01:03:57;;;;;;;8.55;6.93;;;;;;;;;;5014462;28;20214;-83
2022/04/08 01:06:26;;;;;;;7.43;6.03;;;;;;;;;;5020747;28;20246;-83
2022/04/08 01:08:55;;;;;;;11.82;7.40;;;;;;;;;;5017056;28;20224;-83
2022/04/08 01:11:22;;;;;;;8.60;7.47;;;;;;;;;;5013753;28;20211;-81
2022/04/08 01:13:51;;;;;;;11.88;7.53;;;;;;;;;;5014507;28;20552;-82
2022/04/08 01:16:19;;;;;;;10.90;7.47;;;;;;;;;;5014750;28;20211;-82
2022/04/08 01:18:46;;;;;;;12.23;7.38;;;;;;;;;;5015163;28;20224;-84
2022/04/08 01:21:14;;;;;;;11.48;7.20;;;;;;;;;;5015291;28;20211;-83
2022/04/08 01:23:43;;;;;;;11.65;7.43;;;;;;;;;;5015485;28;20785;-83
2022/04/08 01:26:13;;;;;;;11.07;7.43;;;;;;;;;;5017614;28;20208;-81
2022/04/08 01:28:40;;;;;;;8.85;7.93;;;;;;;;;;5020561;28;20742;-82
2022/04/08 01:31:07;;;;;;;8.90;6.93;;;;;;;;;;5016623;28;20295;-82
2022/04/08 01:33:34;;;;;;;13.52;8.32;;;;;;;;;;5012794;28;20196;-81
2022/04/08 01:36:01;;;;;;;13.07;8.57;;;;;;;;;;5013331;28;20224;-83
2022/04/08 01:38:29;;;;;;;8.43;6.90;;;;;;;;;;5013223;28;20230;-82
2022/04/08 01:40:56;;;;;;;14.57;7.18;;;;;;;;;;5013657;28;20777;-82
2022/04/08 01:43:24;;;;;;;10.02;7.57;;;;;;;;;;5014176;28;20202;-82
2022/04/08 01:45:51;;;;;;;10.38;6.30;;;;;;;;;;5015026;28;20210;-82
2022/04/08 01:48:18;;;;;;;7.40;6.70;;;;;;;;;;5016746;28;20211;-81
2022/04/08 01:50:45;;;;;;;15.88;6.40;;;;;;;;;;5020836;28;20196;-82
2022/04/08 01:53:15;;;;;;;10.45;6.65;;;;;;;;;;5025099;28;20199;-82
2022/04/08 01:55:42;;;;;;;7.00;5.70;;;;;;;;;;5032361;28;20219;-81
2022/04/08 01:58:10;;;;;;;14.70;6.18;;;;;;;;;;5032364;28;20238;-81
2022/04/08 02:00:39;;;;;;;9.40;5.45;;;;;;;;;;5032667;28;20203;-81
2022/04/08 02:03:06;;;;;;;10.88;6.30;;;;;;;;;;5033248;28;20199;-82
2022/04/08 02:05:33;;;;;;;7.60;5.13;;;;;;;;;;5018571;28;20215;-81
2022/04/08 02:08:00;;;;;;;9.73;6.57;;;;;;;;;;5014523;28;20227;-82
2022/04/08 02:10:27;;;;;;;9.50;5.38;;;;;;;;;;5015823;28;20199;-82
2022/04/08 02:12:55;;;;;;;15.20;6.20;;;;;;;;;;5019899;28;20255;-80
2022/04/08 02:15:27;;;;;;;8.57;5.15;;;;;;;;;;5023898;28;20212;-83
2022/04/08 02:17:56;;;;;;;10.32;5.93;;;;;;;;;;5031182;28;20496;-81
2022/04/08 02:20:23;;;;;;;9.13;5.97;;;;;;;;;;5032146;28;20195;-83
2022/04/08 02:22:50;;;;;;;12.75;6.28;;;;;;;;;;5032052;28;20199;-84
2022/04/08 02:25:17;;;;;;;7.10;5.75;;;;;;;;;;5032297;28;20600;-81
2022/04/08 02:27:45;;;;;;;12.57;7.25;;;;;;;;;;5019336;28;20230;-81
2022/04/08 02:30:13;;;;;;;10.18;6.38;;;;;;;;;;5014198;28;20562;-83
2022/04/08 02:32:40;;;;;;;7.72;6.82;;;;;;;;;;5015381;28;20579;-83
2022/04/08 02:35:09;;;;;;;10.75;6.43;;;;;;;;;;5002224;28;20674;-80
2022/04/08 02:37:37;;;;;;;8.57;6.45;;;;;;;;;;5005677;28;20724;-80
2022/04/08 02:40:04;;;;;;;7.97;5.95;;;;;;;;;;5014164;28;20571;-83
2022/04/08 02:42:31;;;;;;;12.02;5.70;;;;;;;;;;5031747;28;20196;-82
2022/04/08 02:44:58;;;;;;;11.57;5.55;;;;;;;;;;5031922;28;20568;-80
2022/04/08 02:47:26;;;;;;;7.05;5.50;;;;;;;;;;5031998;28;20335;-82
2022/04/08 02:49:53;;;;;;;6.45;5.30;;;;;;;;;;5002914;28;20596;-81
2022/04/08 02:52:21;;;;;;;8.57;6.22;;;;;;;;;;5013695;28;20687;-83
2022/04/08 02:54:49;;;;;;;12.90;6.93;;;;;;;;;;5014683;28;20219;-81
2022/04/08 02:57:16;;;;;;;9.15;7.05;;;;;;;;;;5019867;28;20195;-83
2022/04/08 02:59:43;;;;;;;7.25;6.15;;;;;;;;;;5018022;28;20226;-81
2022/04/08 03:02:10;;;;;;;10.50;6.53;;;;;;;;;;5011593;28;20554;-82
2022/04/08 03:04:37;;;;;;;10.25;5.85;;;;;;;;;;5011223;28;20199;-80
2022/04/08 03:07:05;;;;;;;12.75;6.75;;;;;;;;;;5011684;28;20200;-82
2022/04/08 03:09:33;;;;;;;6.28;5.40;;;;;;;;;;5011711;28;20705;-82
2022/04/08 03:12:01;;;;;;;6.70;5.47;;;;;;;;;;5012241;28;20196;-82
2022/04/08 03:14:28;;;;;;;7.75;5.45;;;;;;;;;;5013375;28;20224;-83
2022/04/08 03:16:55;;;;;;;8.68;5.70;;;;;;;;;;5013839;28;20666;-83
2022/04/08 03:19:22;;;;;;;5.78;4.97;;;;;;;;;;5018293;28;20314;-81
2022/04/08 03:21:49;;;;;;;9.23;5.70;;;;;;;;;;5023480;28;20242;-82
2022/04/08 03:24:16;;;;;;;5.78;4.70;;;;;;;;;;5030969;28;20203;-82
2022/04/08 03:26:47;;;;;;;8.30;5.15;;;;;;;;;;5031015;28;20578;-81
2022/04/08 03:29:15;;;;;;;6.68;4.72;;;;;;;;;;5031061;28;20219;-83
2022/04/08 03:31:42;;;;;;;7.05;5.03;;;;;;;;;;5031604;28;20857;-82
2022/04/08 03:34:09;;;;;;;5.95;5.32;;;;;;;;;;5021405;28;20208;-82
2022/04/08 03:36:36;;;;;;;7.60;5.70;;;;;;;;;;5013212;28;20569;-82
2022/04/08 03:39:03;;;;;;;6.90;5.20;;;;;;;;;;5013088;28;20271;-80
2022/04/08 03:41:30;;;;;;;5.50;4.82;;;;;;;;;;5018831;28;20206;-83
2022/04/08 03:43:59;;;;;;;5.95;5.38;;;;;;;;;;5018055;28;20285;-83
2022/04/08 03:46:26;;;;;;;5.47;4.85;;;;;;;;;;5010450;28;20203;-83
2022/04/08 03:48:53;;;;;;;6.57;5.90;;;;;;;;;;5010243;28;20239;-83
2022/04/08 03:51:20;;;;;;;6.03;4.97;;;;;;;;;;5011056;28;20259;-83
2022/04/08 03:53:47;;;;;;;6.75;5.68;;;;;;;;;;5011268;28;20215;-83
2022/04/08 03:56:15;;;;;;;9.00;5.68;;;;;;;;;;5010953;28;20223;-81
2022/04/08 03:58:42;;;;;;;7.85;6.45;;;;;;;;;;5018424;28;20242;-82
2022/04/08 04:01:12;;;;;;;13.05;6.05;;;;;;;;;;5018217;28;20270;-81
2022/04/08 04:03:47;;;;;;;11.35;6.15;;;;;;;;;;5010797;28;20299;-81
2022/04/08 04:06:14;;;;;;;10.05;6.20;;;;;;;;;;5010700;28;20217;-82
2022/04/08 04:08:41;;;;;;;16.25;6.28;;;;;;;;;;5010766;28;20226;-82
2022/04/08 04:11:09;;;;;;;7.72;6.15;;;;;;;;;;5011212;28;20208;-83
2022/04/08 04:13:36;;;;;;;11.02;6.30;;;;;;;;;;5011062;28;20208;-83
2022/04/08 04:16:03;;;;;;;11.18;6.18;;;;;;;;;;5012421;28;20223;-82
2022/04/08 04:18:31;;;;;;;6.50;5.60;;;;;;;;;;5012632;28;20228;-83
2022/04/08 04:20:58;;;;;;;13.27;6.57;;;;;;;;;;5018119;28;20192;-83
2022/04/08 04:23:26;;;;;;;11.20;6.07;;;;;;;;;;5017876;28;20562;-81
2022/04/08 04:25:53;;;;;;;12.63;6.82;;;;;;;;;;5010094;28;20196;-83
2022/04/08 04:28:20;;;;;;;7.40;5.93;;;;;;;;;;5010413;28;20588;-83
2022/04/08 04:30:47;;;;;;;9.55;7.10;;;;;;;;;;5010969;28;20207;-82
2022/04/08 04:33:14;;;;;;;7.05;5.80;;;;;;;;;;5011097;28;20232;-79
2022/04/08 04:35:43;;;;;;;7.75;5.65;;;;;;;;;;5010843;28;20314;-82
2022/04/08 04:38:13;;;;;;;7.60;6.05;;;;;;;;;;5012408;28;20224;-83
2022/04/08 04:40:40;;;;;;;8.88;6.40;;;;;;;;;;5014613;28;20214;-84
2022/04/08 04:43:07;;;;;;;10.68;6.72;;;;;;;;;;5021566;28;20200;-83
2022/04/08 04:45:37;;;;;;;10.15;6.65;;;;;;;;;;5004398;28;20196;-82
2022/04/08 04:48:05;;;;;;;13.88;6.95;;;;;;;;;;5013854;28;20331;-81
2022/04/08 04:50:32;;;;;;;7.55;6.05;;;;;;;;;;5013716;28;20642;-81
2022/04/08 04:53:00;;;;;;;7.80;6.22;;;;;;;;;;5014177;28;20197;-80
2022/04/08 04:55:28;;;;;;;11.65;7.28;;;;;;;;;;5014499;28;20223;-83
2022/04/08 04:57:56;;;;;;;7.85;6.30;;;;;;;;;;5014433;28;20227;-82
2022/04/08 05:00:23;;;;;;;9.23;6.40;;;;;;;;;;5016145;28;20211;-81
2022/04/08 05:02:50;;;;;;;7.85;6.25;;;;;;;;;;5016225;28;20574;-83
2022/04/08 05:05:17;;;;;;;11.32;6.38;;;;;;;;;;5021469;28;20673;-81
2022/04/08 05:07:44;;;;;;;12.25;6.43;;;;;;;;;;5023296;28;20731;-81
2022/04/08 05:10:13;;;;;;;10.43;6.93;;;;;;;;;;5035750;28;20203;-81
2022/04/08 05:12:40;;;;;;;7.60;6.70;;;;;;;;;;5035419;28;20203;-82
2022/04/08 05:15:09;;;;;;;9.93;7.55;;;;;;;;;;5037041;28;20219;-82
2022/04/08 05:17:36;;;;;;;8.52;7.07;;;;;;;;;;5035700;28;20199;-80
2022/04/08 05:20:04;;;;;;;9.15;7.00;;;;;;;;;;5026945;28;20283;-82
2022/04/08 05:22:31;;;;;;;9.63;6.70;;;;;;;;;;5015416;28;20196;-83
2022/04/08 05:24:59;;;;;;;7.25;6.45;;;;;;;;;;5015718;28;20210;-82
2022/04/08 05:27:28;;;;;;;14.80;7.05;;;;;;;;;;5020521;28;20208;-82
2022/04/08 05:29:55;;;;;;;8.13;6.45;;;;;;;;;;5003633;28;20204;-82
2022/04/08 05:32:23;;;;;;;11.07;6.47;;;;;;;;;;4993308;28;20232;-82
2022/04/08 05:34:50;;;;;;;9.70;6.85;;;;;;;;;;4993336;28;20754;-81
2022/04/08 05:37:17;;;;;;;11.23;6.05;;;;;;;;;;4993510;28;20208;-81
2022/04/08 05:39:44;;;;;;;8.45;5.35;;;;;;;;;;4994080;28;20207;-82
2022/04/08 05:42:11;;;;;;;9.63;5.10;;;;;;;;;;4999236;28;20200;-80
2022/04/08 05:44:40;;;;;;;7.10;5.07;;;;;;;;;;5015169;28;20211;-82
2022/04/08 05:47:07;;;;;;;5.13;4.63;;;;;;;;;;5015032;28;20560;-82
2022/04/08 05:49:34;;;;;;;7.53;4.47;;;;;;;;;;5019128;28;20258;-82
2022/04/08 05:52:02;;;;;;;4.47;4.05;;;;;;;;;;5020501;28;20203;-82
2022/04/08 05:54:30;;;;;;;10.00;4.72;;;;;;;;;;5031149;28;20204;-82
2022/04/08 05:57:00;;;;;;;9.50;4.95;;;;;;;;;;5032354;28;20211;-82
2022/04/08 05:59:28;;;;;;;5.75;3.90;;;;;;;;;;5032649;28;20219;-79
2022/04/08 06:01:56;;;;;;;4.43;3.67;;;;;;;;;;5033220;28;20203;-80
2022/04/08 06:04:23;;;;;;;4.63;3.83;;;;;;;;;;5030453;28;20203;-79
2022/04/08 06:06:51;;;;;;;4.40;3.88;;;;;;;;;;5014861;28;20203;-78
2022/04/08 06:09:18;;;;;;;4.88;3.33;;;;;;;;;;5014607;28;20602;-78
2022/04/08 06:11:46;;;;;;;4.75;3.83;;;;;;;;;;5019183;28;20206;-81
2022/04/08 06:14:13;;;;;;;5.18;3.90;;;;;;;;;;5023917;28;21409;-80
2022/04/08 06:16:40;;;;;;;6.00;4.13;;;;;;;;;;5030875;28;20223;-82
2022/04/08 06:19:10;;;;;;;6.53;4.40;;;;;;;;;;5032378;28;20222;-79
2022/04/08 06:21:37;;;;;;;6.57;3.80;;;;;;;;;;5033145;28;20564;-79
2022/04/08 06:24:04;;;;;;;6.00;4.35;;;;;;;;;;5032707;28;20449;-80
2022/04/08 06:26:34;;;;;;;5.33;4.77;;;;;;;;;;5029058;28;20202;-80
2022/04/08 06:29:02;;;;;;;4.57;3.30;;;;;;;;;;5013901;28;20544;-80
2022/04/08 06:31:30;;;;;;;4.80;4.00;;;;;;;;;;5014227;28;20243;-80
2022/04/08 06:33:57;;;;;;;5.50;3.10;;;;;;;;;;5018560;28;20509;-82
2022/04/08 06:36:27;;;;;;;6.57;3.40;;;;;;;;;;5019561;28;20485;-82
2022/04/08 06:38:54;;;;;;;3.77;3.47;;;;;;;;;;5011785;28;20829;-81
2022/04/08 06:41:21;;;;;;;6.90;3.40;;;;;;;;;;5031411;28;20445;-80
2022/04/08 06:43:48;;;;;;;5.03;3.53;;;;;;;;;;5013959;28;20445;-82
2022/04/08 06:46:15;;;;;;;4.57;3.33;;;;;;;;;;5033074;28;20445;-78
2022/04/08 06:48:43;;;;;;;5.80;3.13;;;;;;;;;;5028841;28;20580;-77
2022/04/08 06:51:10;;;;;;;3.90;3.50;;;;;;;;;;5013952;28;20442;-78
2022/04/08 06:53:38;;;;;;;5.87;3.90;;;;;;;;;;5014344;28;20443;-77
2022/04/08 06:56:06;;;;;;;5.50;4.03;;;;;;;;;;5017496;28;20478;-78
2022/04/08 06:58:39;;;;;;;4.50;4.10;;;;;;;;;;5019172;28;20459;-78
2022/04/08 07:01:07;;;;;;;6.73;3.70;;;;;;;;;;5028990;28;20958;-78
2022/04/08 07:03:34;;;;;;;7.70;4.00;;;;;;;;;;5030772;28;20446;-80
2022/04/08 07:06:03;;;;;;;6.93;3.80;;;;;;;;;;5031317;28;20449;-80
2022/04/08 07:08:30;;;;;;;4.00;3.60;;;;;;;;;;5031782;28;20478;-80
2022/04/08 07:10:59;;;;;;;4.00;3.00;;;;;;;;;;5010927;28;20929;-79
2022/04/08 07:13:27;;;;;;;5.73;4.57;;;;;;;;;;5013494;28;20454;-79
2022/04/08 07:15:54;;;;;;;7.77;4.33;;;;;;;;;;5013396;28;20833;-81
2022/04/08 07:18:23;;;;;;;4.00;3.60;;;;;;;;;;5011256;28;20971;-80
2022/04/08 07:20:50;;;;;;;4.77;3.27;;;;;;;;;;5014340;28;20434;-78
2022/04/08 07:23:18;;;;;;;4.10;3.50;;;;;;;;;;5027150;28;20445;-79
2022/04/08 07:25:45;;;;;;;8.37;4.37;;;;;;;;;;5030793;28;20450;-80
2022/04/08 07:28:13;;;;;;;7.40;3.90;;;;;;;;;;5031132;28;20462;-79
2022/04/08 07:30:40;;;;;;;4.13;3.73;;;;;;;;;;5031359;28;20823;-81
2022/04/08 07:33:08;;;;;;;5.23;3.13;;;;;;;;;;5030835;28;20958;-81
2022/04/08 07:35:37;;;;;;;5.93;3.17;;;;;;;;;;5012768;28;20486;-85
2022/04/08 07:38:05;;;;;;;4.90;4.03;;;;;;;;;;5012781;28;20471;-80
2022/04/08 07:40:32;;;;;;;4.30;3.83;;;;;;;;;;5016413;28;20542;-81
2022/04/08 07:42:59;;;;;;;3.90;3.60;;;;;;;;;;5018415;28;20448;-83
2022/04/08 07:45:41;;;;;;;6.40;3.90;;;;;;;;;;5026018;28;20831;-83
2022/04/08 07:48:09;;;;;;;4.00;3.60;;;;;;;;;;5029920;28;20453;-79
2022/04/08 07:50:37;;;;;;;5.80;3.47;;;;;;;;;;5030091;28;20485;-81
2022/04/08 07:53:04;;;;;;;4.57;3.33;;;;;;;;;;5031127;28;20882;-78
2022/04/08 07:55:32;;;;;;;4.73;3.40;;;;;;;;;;5029055;28;20442;-80
2022/04/08 07:57:59;;;;;;;5.97;3.83;;;;;;;;;;5016401;28;20470;-80
2022/04/08 08:00:27;;;;;;;7.17;4.17;;;;;;;;;;5014958;28;20869;-81
2022/04/08 08:02:56;;;;;;;3.97;3.23;;;;;;;;;;5008810;28;20820;-84
2022/04/08 08:05:23;;;;;;;4.80;3.63;;;;;;;;;;5008257;28;20451;-84
2022/04/08 08:07:51;;;;;;;5.20;3.93;;;;;;;;;;5009507;28;20455;-82
2022/04/08 08:10:19;;;;;;;3.40;3.10;;;;;;;;;;5011150;28;20442;-83
2022/04/08 08:12:47;;;;;;;3.97;2.90;;;;;;;;;;5010525;28;20443;-80
2022/04/08 08:15:15;;;;;;;6.40;3.13;;;;;;;;;;5014221;28;20446;-82
2022/04/08 08:17:42;;;;;;;3.80;3.40;;;;;;;;;;5016325;28;20912;-79
2022/04/08 08:20:11;;;;;;;4.77;3.07;;;;;;;;;;5019997;28;20779;-80
2022/04/08 08:22:38;;;;;;;4.73;3.77;;;;;;;;;;5005081;28;20437;-84
2022/04/08 08:25:07;;;;;;;4.37;3.07;;;;;;;;;;5016982;28;20537;-81
2022/04/08 08:27:42;;;;;;;3.60;3.13;;;;;;;;;;5014435;28;20955;-79
2022/04/08 08:30:11;;;;;;;3.83;3.40;;;;;;;;;;5014375;28;20446;-82
2022/04/08 08:32:38;;;;;;;3.83;3.43;;;;;;;;;;5014801;28;20454;-83
2022/04/08 08:35:07;;;;;;;4.23;2.93;;;;;;;;;;5015043;28;20442;-81
2022/04/08 08:37:36;;;;;;;5.33;3.10;;;;;;;;;;5016191;28;20487;-79
2022/04/08 08:40:04;;;;;;;3.47;3.10;;;;;;;;;;5016310;28;20545;-81
2022/04/08 08:42:31;;;;;;;5.03;2.90;;;;;;;;;;5019708;28;20450;-81
2022/04/08 08:44:59;;;;;;;4.23;3.30;;;;;;;;;;5020658;28;20808;-83
2022/04/08 08:47:27;;;;;;;3.07;2.77;;;;;;;;;;5017376;28;20455;-79
2022/04/08 08:49:55;;;;;;;4.37;2.63;;;;;;;;;;4996517;28;20959;-80
2022/04/08 08:52:22;;;;;;;5.40;2.30;;;;;;;;;;5017523;28;20447;-78
2022/04/08 08:54:51;;;;;;;2.53;2.13;;;;;;;;;;5014080;28;20453;-79
2022/04/08 08:57:18;;;;;;;2.70;2.10;;;;;;;;;;4996626;28;20478;-80
2022/04/08 08:59:46;;;;;;;3.53;2.00;;;;;;;;;;5023916;28;20516;-90
2022/04/08 09:02:18;;;;;;;2.77;2.20;;;;;;;;;;5020890;28;20430;-78
2022/04/08 09:04:45;;;;;;;4.93;2.33;;;;;;;;;;5036391;28;20445;-80
2022/04/08 09:07:22;;;;;;;2.87;2.23;;;;;;;;;;5033794;28;20484;-81
2022/04/08 09:09:53;;;;;;;3.83;3.10;;;;;;;;;;5034115;28;20448;-80
2022/04/08 09:12:21;;;;;;;4.80;2.90;;;;;;;;;;5034276;28;20518;-80
2022/04/08 09:14:49;;;;;;;5.47;2.70;;;;;;;;;;5016479;28;20448;-80
2022/04/08 09:17:18;;;;;;;5.10;2.73;;;;;;;;;;4996025;28;20479;-81
2022/04/08 09:19:48;;;;;;;2.90;2.20;;;;;;;;;;4995832;28;20479;-81
2022/04/08 09:22:15;;;;;;;4.80;2.87;;;;;;;;;;5007035;28;20936;-81
2022/04/08 09:24:43;;;;;;;4.80;2.87;;;;;;;;;;5020535;28;20442;-78
2022/04/08 09:27:11;;;;;;;5.60;3.33;;;;;;;;;;5026228;28;20452;-80
2022/04/08 09:29:39;;;;;;;4.57;3.20;;;;;;;;;;5014927;28;20464;-81
2022/04/08 09:32:10;;;;;;;3.03;2.77;;;;;;;;;;5032682;28;20450;-81
2022/04/08 09:34:37;;;;;;;5.47;3.00;;;;;;;;;;5033046;28;20446;-84
2022/04/08 09:37:07;;;;;;;4.87;3.00;;;;;;;;;;5033098;28;21017;-82
2022/04/08 09:39:36;;;;;;;3.23;2.90;;;;;;;;;;5019730;28;20849;-80
2022/04/08 09:42:05;;;;;;;6.40;3.27;;;;;;;;;;5020624;28;20456;-84
2022/04/08 09:44:35;;;;;;;3.53;3.13;;;;;;;;;;5015235;28;20828;-79
2022/04/08 09:47:02;;;;;;;3.60;3.30;;;;;;;;;;5012758;28;20451;-82
2022/04/08 09:49:29;;;;;;;4.70;3.37;;;;;;;;;;5012870;28;20833;-77
2022/04/08 09:51:58;;;;;;;4.20;3.57;;;;;;;;;;5014000;28;20505;-78
2022/04/08 09:54:28;;;;;;;4.50;3.50;;;;;;;;;;5013123;28;20451;-83
2022/04/08 09:56:55;;;;;;;7.73;3.50;;;;;;;;;;4995128;28;20566;-83
2022/04/08 09:59:24;;;;;;;4.27;3.60;;;;;;;;;;4995285;28;20891;-81
2022/04/08 10:01:53;;;;;;;6.70;4.50;;;;;;;;;;5007555;28;20779;-84
2022/04/08 10:04:22;;;;;;;6.23;3.43;;;;;;;;;;5020075;28;20443;-82
2022/04/08 10:06:49;;;;;;;3.63;3.33;;;;;;;;;;5018380;28;20482;-78
2022/04/08 10:09:17;;;;;;;5.80;4.00;;;;;;;;;;5012503;28;21015;-79
2022/04/08 10:11:47;;;;;;;3.80;3.27;;;;;;;;;;5012472;28;20524;-78
2022/04/08 10:14:22;;;;;;;4.40;3.63;;;;;;;;;;5013424;28;20454;-77
2022/04/08 10:16:52;;;;;;;5.60;3.60;;;;;;;;;;5013273;28;20556;-77
2022/04/08 10:19:22;;;;;;;5.53;3.60;;;;;;;;;;5014315;28;20497;-76
2022/04/08 10:21:52;;;;;;;5.27;3.93;;;;;;;;;;5014783;28;20959;-76
2022/04/08 10:24:23;;;;;;;6.07;4.30;;;;;;;;;;5017100;28;20523;-79
2022/04/08 10:27:06;;;;;;;4.50;4.10;;;;;;;;;;5019889;28;20438;-78
2022/04/08 10:29:34;;;;;;;4.13;3.73;;;;;;;;;;5012280;28;20553;-78
2022/04/08 10:32:02;;;;;;;5.33;3.60;;;;;;;;;;5014672;28;20446;-78
2022/04/08 10:34:32;;;;;;;7.67;4.40;;;;;;;;;;5032077;28;20521;-77
2022/04/08 10:37:00;;;;;;;5.03;4.53;;;;;;;;;;5014478;28;20852;-80
2022/04/08 10:39:27;;;;;;;6.40;5.40;;;;;;;;;;5014866;28;20474;-78
2022/04/08 10:41:56;;;;;;;5.50;5.00;;;;;;;;;;5013879;28;20849;-78
2022/04/08 10:44:31;;;;;;;7.83;5.27;;;;;;;;;;5014235;28;20531;-79
2022/04/08 10:46:59;;;;;;;6.63;5.43;;;;;;;;;;5016420;28;20522;-82
2022/04/08 10:49:27;;;;;;;5.20;4.73;;;;;;;;;;5001838;28;20473;-79
2022/04/08 10:51:55;;;;;;;5.83;5.10;;;;;;;;;;5025407;28;20446;-80
2022/04/08 10:54:34;;;;;;;6.67;5.03;;;;;;;;;;5031575;28;20448;-80
2022/04/08 10:57:01;;;;;;;6.67;4.40;;;;;;;;;;5031737;28;20540;-81
2022/04/08 10:59:28;;;;;;;6.20;4.47;;;;;;;;;;5031480;28;20461;-78
2022/04/08 11:01:59;;;;;;;6.27;4.60;;;;;;;;;;5031406;28;20816;-81
2022/04/08 11:04:28;;;;;;;5.40;4.37;;;;;;;;;;5018907;28;20467;-82
2022/04/08 11:06:57;;;;;;;5.37;4.83;;;;;;;;;;5019283;28;20517;-81
2022/04/08 11:09:24;;;;;;;8.10;4.50;;;;;;;;;;5011948;28;20467;-81
2022/04/08 11:11:53;;;;;;;6.30;4.50;;;;;;;;;;5011759;28;20920;-82
2022/04/08 11:14:21;;;;;;;6.00;4.80;;;;;;;;;;5012780;28;20462;-78
2022/04/08 11:16:49;;;;;;;7.97;4.50;;;;;;;;;;4995588;28;20514;-78
2022/04/08 11:19:16;;;;;;;7.10;4.60;;;;;;;;;;4995021;28;20976;-78
2022/04/08 11:21:43;;;;;;;6.10;4.80;;;;;;;;;;5013912;28;20825;-80
2022/04/08 11:24:13;;;;;;;5.10;4.60;;;;;;;;;;5013534;28;20449;-83
2022/04/08 11:26:42;;;;;;;5.13;4.60;;;;;;;;;;5016972;28;20980;-78
2022/04/08 11:29:12;;;;;;;6.60;4.50;;;;;;;;;;5001266;28;21033;-80
2022/04/08 11:31:39;;;;;;;5.10;4.60;;;;;;;;;;5027794;28;20885;-79
2022/04/08 11:34:07;;;;;;;7.30;4.60;;;;;;;;;;5030652;28;20450;-84
2022/04/08 11:36:35;;;;;;;6.10;4.90;;;;;;;;;;5013381;28;20454;-83
2022/04/08 11:39:02;;;;;;;7.60;4.90;;;;;;;;;;5014107;28;20486;-74
2022/04/08 11:41:30;;;;;;;7.27;4.80;;;;;;;;;;5030253;28;20442;-81
2022/04/08 11:43:58;;;;;;;5.43;4.23;;;;;;;;;;5014189;28;20447;-81
2022/04/08 11:46:25;;;;;;;6.17;4.50;;;;;;;;;;5013704;28;20469;-78
2022/04/08 11:48:52;;;;;;;7.57;4.63;;;;;;;;;;5016327;28;20880;-76
2022/04/08 11:51:21;;;;;;;5.80;4.60;;;;;;;;;;5018950;28;20442;-81
2022/04/08 11:53:49;;;;;;;9.27;6.37;;;;;;;;;;5026050;28;20478;-78
2022/04/08 11:56:24;;;;;;;8.13;5.53;;;;;;;;;;5013565;28;20450;-82
2022/04/08 11:58:55;;;;;;;6.43;4.80;;;;;;;;;;5013556;28;20524;-78
2022/04/08 12:01:22;;;;;;;6.47;4.33;;;;;;;;;;5031654;28;20446;-82
2022/04/08 12:03:50;;;;;;;5.87;5.00;;;;;;;;;;5030890;28;20899;-76
2022/04/08 12:06:19;;;;;;;5.37;4.83;;;;;;;;;;4976282;28;20451;-81
2022/04/08 12:08:46;;;;;;;5.50;4.20;;;;;;;;;;4993288;28;20459;-81
2022/04/08 12:11:13;;;;;;;5.67;5.13;;;;;;;;;;5006357;28;20465;-81
2022/04/08 12:13:41;;;;;;;5.50;4.60;;;;;;;;;;5018705;28;20952;-79
2022/04/08 12:16:10;;;;;;;4.93;4.43;;;;;;;;;;5013985;28;20435;-77
2022/04/08 12:18:49;;;;;;;5.77;4.30;;;;;;;;;;5010856;28;20485;-77
2022/04/08 12:21:22;;;;;;;6.20;4.90;;;;;;;;;;5010618;28;20442;-80
2022/04/08 12:23:50;;;;;;;5.90;4.70;;;;;;;;;;5011365;28;20447;-84
2022/04/08 12:26:18;;;;;;;6.73;5.17;;;;;;;;;;5010734;28;20501;-81
2022/04/08 12:28:46;;;;;;;7.70;4.57;;;;;;;;;;4994939;28;20465;-83
2022/04/08 12:31:15;;;;;;;6.10;4.33;;;;;;;;;;5012508;28;20443;-85
2022/04/08 12:33:42;;;;;;;5.03;4.53;;;;;;;;;;4997693;28;20439;-82
2022/04/08 12:36:12;;;;;;;4.33;3.93;;;;;;;;;;5017694;28;20441;-82
2022/04/08 12:38:39;;;;;;;6.57;4.57;;;;;;;;;;5013556;28;20486;-78
2022/04/08 12:41:06;;;;;;;9.07;5.07;;;;;;;;;;5010463;28;20472;-83
2022/04/08 12:43:33;;;;;;;4.67;4.17;;;;;;;;;;5010299;28;20478;-82
2022/04/08 12:46:01;;;;;;;8.83;5.40;;;;;;;;;;4993192;28;20798;-81
2022/04/08 12:48:31;;;;;;;10.60;5.20;;;;;;;;;;4993135;28;20465;-78
2022/04/08 12:50:58;;;;;;;7.20;4.23;;;;;;;;;;5012197;28;20455;-79
2022/04/08 12:53:28;;;;;;;6.17;4.40;;;;;;;;;;5012520;28;20454;-79
2022/04/08 12:55:56;;;;;;;4.47;3.70;;;;;;;;;;5014632;28;20951;-82
2022/04/08 12:58:24;;;;;;;4.73;4.17;;;;;;;;;;5017500;28;20482;-79
2022/04/08 13:00:53;;;;;;;5.97;3.90;;;;;;;;;;5024263;28;20457;-80
2022/04/08 13:03:20;;;;;;;5.57;3.70;;;;;;;;;;5033964;28;20508;-80
2022/04/08 13:05:48;;;;;;;6.57;4.50;;;;;;;;;;5033543;28;20951;-79
2022/04/08 13:08:15;;;;;;;5.77;3.80;;;;;;;;;;5033650;28;20458;-80
2022/04/08 13:10:43;;;;;;;6.63;4.50;;;;;;;;;;5034010;28;20814;-81
2022/04/08 13:13:10;;;;;;;7.53;4.27;;;;;;;;;;5018641;28;20462;-79
2022/04/08 13:15:37;;;;;;;5.80;3.90;;;;;;;;;;5015542;28;20453;-80
2022/04/08 13:18:06;;;;;;;8.80;3.90;;;;;;;;;;5017413;28;20998;-79
2022/04/08 13:20:33;;;;;;;6.33;3.30;;;;;;;;;;5021575;28;20537;-78
2022/04/08 13:23:01;;;;;;;2.93;2.60;;;;;;;;;;5025920;28;20442;-79
2022/04/08 13:25:31;;;;;;;4.00;2.60;;;;;;;;;;5033238;28;20621;-81
2022/04/08 13:27:58;;;;;;;6.40;3.63;;;;;;;;;;5033030;28;20509;-79
2022/04/08 13:30:25;;;;;;;3.23;2.83;;;;;;;;;;5033608;28;20446;-80
2022/04/08 13:32:52;;;;;;;3.47;2.77;;;;;;;;;;5033927;28;20811;-77
2022/04/08 13:35:20;;;;;;;6.53;3.50;;;;;;;;;;5019698;28;20459;-78
2022/04/08 13:37:47;;;;;;;4.50;2.80;;;;;;;;;;5015115;28;20999;-77
2022/04/08 13:40:15;;;;;;;4.30;2.87;;;;;;;;;;5016528;28;20430;-78
2022/04/08 13:42:42;;;;;;;3.73;2.87;;;;;;;;;;5020870;28;20439;-78
2022/04/08 13:45:10;;;;;;;6.20;3.40;;;;;;;;;;5018149;28;20446;-76
2022/04/08 13:47:37;;;;;;;6.90;3.50;;;;;;;;;;5013092;28;20439;-75
2022/04/08 13:50:05;;;;;;;5.10;3.07;;;;;;;;;;5012863;28;20478;-77
2022/04/08 13:52:32;;;;;;;5.87;2.80;;;;;;;;;;5013151;28;20818;-76
2022/04/08 13:55:00;;;;;;;4.07;2.70;;;;;;;;;;4996043;28;20536;-76
2022/04/08 13:57:28;;;;;;;3.87;3.00;;;;;;;;;;4996205;28;20470;-76
2022/04/08 13:59:55;;;;;;;3.13;2.63;;;;;;;;;;5015010;28;20473;-76
2022/04/08 14:02:22;;;;;;;5.30;2.83;;;;;;;;;;5015286;28;20458;-77
2022/04/08 14:04:50;;;;;;;3.87;2.70;;;;;;;;;;5019777;28;20913;-77
2022/04/08 14:07:18;;;;;;;5.47;3.57;;;;;;;;;;5019579;28;20796;-76
2022/04/08 14:09:45;;;;;;;4.10;3.17;;;;;;;;;;5012713;28;21047;-78
2022/04/08 14:12:13;;;;;;;7.70;3.10;;;;;;;;;;5011251;28;20809;-78
2022/04/08 14:14:41;;;;;;;5.60;3.23;;;;;;;;;;4996230;28;20748;-79
2022/04/08 14:17:08;;;;;;;3.87;2.80;;;;;;;;;;5012982;28;20497;-79
2022/04/08 14:19:35;;;;;;;5.93;2.87;;;;;;;;;;5013210;28;20491;-77
2022/04/08 14:22:03;;;;;;;7.37;3.17;;;;;;;;;;5014597;28;20877;-78
2022/04/08 14:24:30;;;;;;;4.50;3.07;;;;;;;;;;5015307;28;20450;-79
2022/04/08 14:26:57;;;;;;;6.10;2.43;;;;;;;;;;5019621;28;20444;-80
2022/04/08 14:29:24;;;;;;;3.73;2.43;;;;;;;;;;5020289;28;20478;-81
2022/04/08 14:31:53;;;;;;;2.93;2.33;;;;;;;;;;5031638;28;20797;-79
2022/04/08 14:34:20;;;;;;;6.10;3.20;;;;;;;;;;5031918;28;20466;-78
2022/04/08 14:36:47;;;;;;;6.20;3.00;;;;;;;;;;5032359;28;20449;-79
2022/04/08 14:39:15;;;;;;;4.23;2.90;;;;;;;;;;5032759;28;20533;-80
2022/04/08 14:41:43;;;;;;;3.57;2.27;;;;;;;;;;5009578;28;20473;-79
2022/04/08 14:44:10;;;;;;;7.10;2.93;;;;;;;;;;5014255;28;20450;-77
2022/04/08 14:46:37;;;;;;;3.10;2.30;;;;;;;;;;4996852;28;20451;-81